Time;durP1;ratioP1;P1;durP2;ratioP2;P2;SDS_P1;SDS_P2;PMS_P1;PMS_P2;Temp;Humidity;BMP_temperature;BMP_pressure;BME280_temperature;BME280_humidity;BME280_pressure;Samples;Min_cycle;Max_cycle;Signal;HPM_P1;HPM_P2
2022/11/09 00:01:40;;;;;;;53.70;25.77;;;1.30;99.90;;;;;;5073206;28;20028;-82
2022/11/09 00:04:07;;;;;;;57.17;27.45;;;1.40;99.90;;;;;;5090368;28;20025;-80
2022/11/09 00:06:33;;;;;;;46.80;25.50;;;1.30;99.90;;;;;;5090170;28;20024;-82
2022/11/09 00:09:00;;;;;;;43.20;23.23;;;1.30;99.90;;;;;;5089809;28;20139;-80
2022/11/09 00:11:26;;;;;;;50.00;25.50;;;1.30;99.90;;;;;;5074285;28;20016;-82
2022/11/09 00:13:52;;;;;;;48.45;25.65;;;1.30;99.90;;;;;;5073009;28;20539;-82
2022/11/09 00:16:19;;;;;;;46.97;25.63;;;1.30;99.90;;;;;;5074153;28;20032;-80
2022/11/09 00:18:48;;;;;;;71.57;33.58;;;1.20;99.90;;;;;;5089887;28;20386;-81
2022/11/09 00:21:16;;;;;;;116.95;48.50;;;1.20;99.90;;;;;;5074039;28;20012;-80
2022/11/09 00:23:43;;;;;;;158.13;63.80;;;1.20;99.90;;;;;;5088895;28;20119;-80
2022/11/09 00:26:12;;;;;;;131.70;59.78;;;1.10;99.90;;;;;;5074029;28;20021;-80
2022/11/09 00:28:38;;;;;;;118.00;50.00;;;1.10;99.90;;;;;;5089817;28;20111;-80
2022/11/09 00:31:07;;;;;;;99.40;43.65;;;1.10;99.90;;;;;;5072691;28;20493;-81
2022/11/09 00:33:33;;;;;;;84.68;39.72;;;1.00;99.90;;;;;;5089603;28;20028;-81
2022/11/09 00:36:06;;;;;;;105.03;44.65;;;0.90;99.90;;;;;;5089497;28;20033;-80
2022/11/09 00:38:32;;;;;;;108.07;50.72;;;0.90;99.90;;;;;;5089811;28;20466;-80
2022/11/09 00:41:04;;;;;;;129.60;57.88;;;0.90;99.90;;;;;;5073750;28;20119;-80
2022/11/09 00:43:31;;;;;;;94.88;46.08;;;0.90;99.90;;;;;;5073893;28;20035;-80
2022/11/09 00:45:56;;;;;;;120.25;53.85;;;0.80;99.90;;;;;;5072897;28;20032;-80
2022/11/09 00:48:22;;;;;;;116.60;50.70;;;0.80;99.90;;;;;;5073691;28;20024;-79
2022/11/09 00:50:52;;;;;;;93.75;43.05;;;0.80;99.90;;;;;;5089191;28;20103;-80
2022/11/09 00:53:19;;;;;;;93.30;39.33;;;0.80;99.90;;;;;;5071493;28;20024;-80
2022/11/09 00:55:54;;;;;;;105.05;39.10;;;0.80;99.90;;;;;;5087091;28;20032;-80
2022/11/09 00:58:20;;;;;;;105.97;41.15;;;0.80;99.90;;;;;;5070081;28;20040;-81
2022/11/09 01:00:45;;;;;;;91.20;38.85;;;0.80;99.90;;;;;;5071511;28;20028;-80
2022/11/09 01:03:11;;;;;;;88.45;39.50;;;0.90;99.90;;;;;;5070027;28;20050;-81
2022/11/09 01:05:38;;;;;;;99.38;41.08;;;0.90;99.90;;;;;;5070336;28;20032;-79
2022/11/09 01:08:04;;;;;;;97.10;41.60;;;0.90;99.90;;;;;;5088669;28;20111;-82
2022/11/09 01:10:30;;;;;;;108.85;44.10;;;0.90;99.90;;;;;;5073423;28;20025;-81
2022/11/09 01:12:56;;;;;;;103.07;43.90;;;0.80;99.90;;;;;;5073322;28;20017;-80
2022/11/09 01:15:22;;;;;;;102.55;42.78;;;0.90;99.90;;;;;;5073299;28;20040;-80
2022/11/09 01:17:47;;;;;;;142.38;58.50;;;0.80;99.90;;;;;;5073285;28;20025;-82
2022/11/09 01:20:15;;;;;;;110.85;47.42;;;0.80;99.90;;;;;;5073238;28;20032;-80
2022/11/09 01:22:40;;;;;;;155.68;66.05;;;0.80;99.90;;;;;;5088696;28;20115;-81
2022/11/09 01:25:06;;;;;;;174.30;60.53;;;0.70;99.90;;;;;;5072053;28;20082;-81
2022/11/09 01:27:32;;;;;;;140.13;56.10;;;0.80;99.90;;;;;;5071877;28;20025;-80
2022/11/09 01:29:57;;;;;;;169.00;66.68;;;0.80;99.90;;;;;;5073077;28;20470;-81
2022/11/09 01:32:23;;;;;;;177.77;68.20;;;0.70;99.90;;;;;;5073080;28;20028;-81
2022/11/09 01:34:49;;;;;;;139.23;62.78;;;0.70;99.90;;;;;;5072760;28;20032;-81
2022/11/09 01:37:14;;;;;;;165.60;67.82;;;0.70;99.90;;;;;;5073104;28;20036;-81
2022/11/09 01:39:40;;;;;;;159.07;66.22;;;0.70;99.90;;;;;;5073078;28;20428;-81
2022/11/09 01:42:05;;;;;;;175.57;73.45;;;0.70;99.90;;;;;;5088704;28;20083;-80
2022/11/09 01:44:32;;;;;;;158.98;65.15;;;0.60;99.90;;;;;;5073064;28;20603;-80
2022/11/09 01:47:16;;;;;;;199.63;75.13;;;0.60;99.90;;;;;;5073315;28;20012;-81
2022/11/09 01:49:53;;;;;;;178.13;63.95;;;0.50;99.90;;;;;;5073136;28;20032;-81
2022/11/09 01:52:22;;;;;;;139.77;53.83;;;0.50;99.90;;;;;;5077159;28;20027;-81
2022/11/09 01:54:57;;;;;;;140.30;57.42;;;0.50;99.90;;;;;;5093006;28;20032;-81
2022/11/09 01:57:30;;;;;;;125.95;46.00;;;0.50;99.90;;;;;;5108832;28;20076;-80
2022/11/09 02:00:03;;;;;;;108.72;45.53;;;0.50;99.90;;;;;;5091773;28;20082;-81
2022/11/09 02:02:28;;;;;;;121.68;44.25;;;0.50;99.90;;;;;;5093179;28;20016;-80
2022/11/09 02:05:05;;;;;;;106.80;45.05;;;0.50;99.90;;;;;;5108622;28;20023;-82
2022/11/09 02:07:33;;;;;;;107.38;40.50;;;0.60;99.90;;;;;;5093109;28;20016;-81
2022/11/09 02:10:07;;;;;;;94.00;37.35;;;0.50;99.90;;;;;;5076255;28;20111;-80
2022/11/09 02:12:34;;;;;;;95.32;39.70;;;0.50;99.90;;;;;;5071465;28;20031;-79
2022/11/09 02:15:03;;;;;;;82.07;35.08;;;0.50;99.90;;;;;;5071261;28;20077;-79
2022/11/09 02:17:29;;;;;;;84.75;35.92;;;0.60;99.90;;;;;;5071523;28;20107;-80
2022/11/09 02:19:58;;;;;;;90.93;38.97;;;0.60;99.90;;;;;;5071275;28;20118;-79
2022/11/09 02:22:24;;;;;;;93.15;40.22;;;0.60;99.90;;;;;;5086401;28;20020;-81
2022/11/09 02:24:49;;;;;;;135.55;51.25;;;0.60;99.90;;;;;;5092787;28;20028;-82
2022/11/09 02:27:15;;;;;;;153.35;57.65;;;0.60;99.90;;;;;;5093106;28;20024;-81
2022/11/09 02:29:44;;;;;;;160.27;58.65;;;0.60;99.90;;;;;;5092664;28;20016;-80
2022/11/09 02:32:20;;;;;;;173.30;58.97;;;0.50;99.90;;;;;;5108522;28;20127;-80
2022/11/09 02:34:46;;;;;;;169.50;63.38;;;0.60;99.90;;;;;;5108376;28;20028;-82
2022/11/09 02:37:12;;;;;;;251.10;69.85;;;0.60;99.90;;;;;;5108341;28;20077;-82
2022/11/09 02:39:38;;;;;;;156.77;56.28;;;0.50;99.90;;;;;;5091382;28;20020;-80
2022/11/09 02:42:08;;;;;;;145.27;47.80;;;0.60;99.90;;;;;;5108581;28;20071;-80
2022/11/09 02:44:40;;;;;;;233.18;51.22;;;0.60;99.90;;;;;;5108302;28;20028;-81
2022/11/09 02:47:06;;;;;;;121.97;37.88;;;0.60;99.90;;;;;;5109502;28;20020;-81
2022/11/09 02:49:31;;;;;;;160.55;41.15;;;0.60;99.90;;;;;;5083901;28;20862;-81
2022/11/09 02:51:57;;;;;;;100.25;40.17;;;0.60;99.90;;;;;;5075967;28;20096;-80
2022/11/09 02:54:23;;;;;;;158.98;47.50;;;0.60;99.90;;;;;;5074603;28;20023;-81
2022/11/09 02:56:48;;;;;;;149.10;44.55;;;0.60;99.90;;;;;;5075985;28;20036;-81
2022/11/09 02:59:15;;;;;;;130.82;46.80;;;0.60;99.90;;;;;;5075677;28;20025;-80
2022/11/09 03:01:40;;;;;;;150.32;50.88;;;0.60;99.90;;;;;;5074586;28;20390;-80
2022/11/09 03:04:06;;;;;;;310.70;72.05;;;0.60;99.90;;;;;;5091222;28;20024;-81
2022/11/09 03:06:34;;;;;;;260.40;66.00;;;0.50;99.90;;;;;;5075930;28;20039;-81
2022/11/09 03:09:02;;;;;;;162.27;56.78;;;0.50;99.90;;;;;;5080569;28;20393;-81
2022/11/09 03:11:28;;;;;;;260.20;64.20;;;0.50;99.90;;;;;;5095975;28;20027;-80
2022/11/09 03:13:54;;;;;;;248.98;60.28;;;0.40;99.90;;;;;;5095746;28;20477;-79
2022/11/09 03:16:19;;;;;;;186.20;53.33;;;0.50;99.90;;;;;;5095778;28;20035;-79
2022/11/09 03:18:45;;;;;;;212.25;57.88;;;0.50;99.90;;;;;;5094441;28;20055;-80
2022/11/09 03:21:11;;;;;;;178.55;58.63;;;0.50;99.90;;;;;;5106467;28;20021;-80
2022/11/09 03:23:36;;;;;;;165.88;56.97;;;0.50;99.90;;;;;;5075380;28;20028;-81
2022/11/09 03:26:02;;;;;;;223.35;55.42;;;0.50;99.90;;;;;;5075332;28;20025;-81
2022/11/09 03:28:28;;;;;;;175.85;46.58;;;0.50;99.90;;;;;;5075393;28;20016;-80
2022/11/09 03:30:53;;;;;;;133.60;36.63;;;0.50;99.90;;;;;;5090928;28;20378;-80
2022/11/09 03:33:19;;;;;;;223.35;48.88;;;0.50;99.90;;;;;;5073735;28;20442;-81
2022/11/09 03:35:45;;;;;;;153.20;43.00;;;0.50;99.90;;;;;;5073780;28;20036;-80
2022/11/09 03:38:10;;;;;;;124.30;43.58;;;0.40;99.90;;;;;;5075220;28;20398;-80
2022/11/09 03:40:36;;;;;;;104.25;41.25;;;0.40;99.90;;;;;;5074784;28;20478;-80
2022/11/09 03:43:02;;;;;;;145.10;47.70;;;0.40;99.90;;;;;;5073782;28;20021;-80
2022/11/09 03:45:28;;;;;;;93.43;35.97;;;0.50;99.90;;;;;;5073685;28;20428;-81
2022/11/09 03:47:58;;;;;;;98.60;33.70;;;0.50;99.90;;;;;;5075093;28;20021;-80
2022/11/09 03:50:25;;;;;;;62.45;29.88;;;0.50;99.90;;;;;;5074947;28;20059;-80
2022/11/09 03:52:51;;;;;;;93.88;34.78;;;0.50;99.90;;;;;;5074863;28;20031;-81
2022/11/09 03:55:16;;;;;;;86.65;38.10;;;0.40;99.90;;;;;;5074681;28;20428;-80
2022/11/09 03:57:45;;;;;;;97.82;32.28;;;0.50;99.90;;;;;;5073250;28;20386;-80
2022/11/09 04:00:12;;;;;;;73.57;32.50;;;0.50;99.90;;;;;;5073299;28;20020;-81
2022/11/09 04:02:38;;;;;;;89.00;33.95;;;0.50;99.90;;;;;;5074571;28;20046;-81
2022/11/09 04:05:04;;;;;;;114.57;37.60;;;0.50;99.90;;;;;;5079044;28;20436;-80
2022/11/09 04:07:30;;;;;;;199.32;49.80;;;0.50;99.90;;;;;;5110511;28;20020;-81
2022/11/09 04:09:56;;;;;;;93.82;36.00;;;0.50;99.90;;;;;;5078908;28;20470;-79
2022/11/09 04:12:21;;;;;;;105.88;41.00;;;0.50;99.90;;;;;;5073054;28;20020;-81
2022/11/09 04:14:47;;;;;;;122.38;39.35;;;0.50;99.90;;;;;;5073201;28;20398;-81
2022/11/09 04:17:12;;;;;;;180.88;48.25;;;0.50;99.90;;;;;;5073149;28;20017;-81
2022/11/09 04:19:38;;;;;;;220.63;60.17;;;0.40;99.90;;;;;;5074236;28;20070;-81
2022/11/09 04:22:04;;;;;;;139.15;46.88;;;0.30;99.90;;;;;;5086823;28;20031;-80
2022/11/09 04:24:29;;;;;;;141.88;48.88;;;0.20;99.90;;;;;;5093186;28;20020;-80
2022/11/09 04:26:55;;;;;;;111.15;41.05;;;0.30;99.90;;;;;;5110017;28;20016;-80
2022/11/09 04:29:20;;;;;;;113.32;46.17;;;0.30;99.90;;;;;;5093079;28;20028;-79
2022/11/09 04:31:49;;;;;;;169.23;52.65;;;0.30;99.90;;;;;;5093145;28;20056;-80
2022/11/09 04:34:16;;;;;;;120.65;47.03;;;0.20;99.90;;;;;;5094204;28;20024;-80
2022/11/09 04:36:41;;;;;;;236.80;92.55;;;0.10;99.90;;;;;;5109861;28;20046;-81
2022/11/09 04:39:07;;;;;;;150.77;59.97;;;0.00;99.90;;;;;;5094128;28;20020;-81
2022/11/09 04:41:32;;;;;;;138.77;49.78;;;0.00;99.90;;;;;;5109951;28;20052;-81
2022/11/09 04:43:58;;;;;;;108.43;44.45;;;0.00;99.90;;;;;;5092841;28;20023;-81
2022/11/09 04:46:24;;;;;;;156.32;54.85;;;0.00;99.90;;;;;;5092676;28;20020;-80
2022/11/09 04:48:49;;;;;;;121.20;46.17;;;0.00;99.90;;;;;;5109741;28;20519;-79
2022/11/09 04:51:15;;;;;;;102.95;43.05;;;0.10;99.90;;;;;;5109558;28;20070;-81
2022/11/09 04:53:41;;;;;;;97.90;42.55;;;0.00;99.90;;;;;;5088039;28;20020;-80
2022/11/09 04:56:07;;;;;;;107.60;44.28;;;0.00;99.90;;;;;;5072109;28;20036;-81
2022/11/09 04:58:33;;;;;;;109.60;42.85;;;0.10;99.90;;;;;;5072348;28;20547;-81
2022/11/09 05:01:17;;;;;;;116.53;46.50;;;0.10;99.90;;;;;;5073504;28;20021;-80
2022/11/09 05:03:43;;;;;;;99.95;42.90;;;0.10;99.90;;;;;;5073686;28;20027;-81
2022/11/09 05:08:53;;;;;;;124.68;48.40;;;0.10;99.90;;;;;;5073715;28;20031;-80
2022/11/09 05:11:19;;;;;;;123.53;49.10;;;0.10;99.90;;;;;;5073012;28;20103;-81
2022/11/09 05:13:45;;;;;;;123.60;51.95;;;0.10;99.90;;;;;;5073181;28;20075;-80
2022/11/09 05:16:11;;;;;;;121.68;48.85;;;0.10;99.90;;;;;;5073109;28;20033;-81
2022/11/09 05:18:36;;;;;;;150.95;49.35;;;0.10;99.90;;;;;;5073324;28;20024;-81
2022/11/09 05:21:02;;;;;;;157.45;53.63;;;0.20;99.90;;;;;;5077491;28;20031;-80
2022/11/09 05:26:13;;;;;;;96.57;41.05;;;0.20;99.90;;;;;;5073382;28;20031;-80
2022/11/09 05:28:39;;;;;;;105.93;44.08;;;0.20;99.90;;;;;;5073209;28;20386;-80
2022/11/09 05:31:05;;;;;;;102.15;41.20;;;0.20;99.90;;;;;;5073257;28;20025;-81
2022/11/09 05:33:31;;;;;;;95.05;39.42;;;0.20;99.90;;;;;;5073142;28;20027;-80
2022/11/09 05:35:56;;;;;;;102.93;42.78;;;0.30;99.90;;;;;;5071762;28;20032;-79
2022/11/09 05:38:23;;;;;;;107.35;44.72;;;0.30;99.90;;;;;;5073612;28;20032;-79
2022/11/09 05:40:50;;;;;;;133.27;46.60;;;0.20;99.90;;;;;;5088475;28;20040;-82
2022/11/09 05:43:16;;;;;;;122.10;47.42;;;0.20;99.90;;;;;;5073341;28;20071;-79
2022/11/09 05:45:42;;;;;;;136.80;49.95;;;0.20;99.90;;;;;;5073337;28;20031;-80
2022/11/09 05:48:07;;;;;;;100.40;41.92;;;0.10;99.90;;;;;;5088648;28;20433;-80
2022/11/09 05:50:34;;;;;;;102.18;43.55;;;0.10;99.90;;;;;;5071840;28;20021;-79
2022/11/09 05:53:00;;;;;;;110.35;46.22;;;0.00;99.90;;;;;;5088973;28;20029;-81
2022/11/09 05:55:26;;;;;;;113.15;46.10;;;0.00;99.90;;;;;;5072890;28;20033;-80
2022/11/09 05:57:53;;;;;;;113.18;49.65;;;0.00;99.90;;;;;;5071677;28;20063;-80
2022/11/09 06:00:19;;;;;;;125.05;48.03;;;0.00;99.90;;;;;;5072938;28;20021;-81
2022/11/09 06:02:44;;;;;;;131.40;53.45;;;0.10;99.90;;;;;;5072921;28;20019;-79
2022/11/09 06:05:10;;;;;;;132.60;53.53;;;0.00;99.90;;;;;;5088370;28;20515;-79
2022/11/09 06:07:36;;;;;;;145.18;60.63;;;0.00;99.90;;;;;;5088169;28;20031;-81
2022/11/09 06:10:03;;;;;;;173.70;74.22;;;0.00;99.90;;;;;;5071282;28;20024;-80
2022/11/09 06:12:29;;;;;;;163.68;69.70;;;0.00;99.90;;;;;;5088069;28;20017;-82
2022/11/09 06:14:54;;;;;;;153.80;65.75;;;0.00;99.90;;;;;;5087669;28;20402;-82
2022/11/09 06:17:20;;;;;;;137.02;56.47;;;0.10;99.90;;;;;;5072567;28;20029;-80
2022/11/09 06:19:46;;;;;;;134.88;53.55;;;0.20;99.90;;;;;;5074580;28;20086;-83
2022/11/09 06:22:11;;;;;;;136.02;50.92;;;0.20;99.90;;;;;;5088224;28;20024;-81
2022/11/09 06:24:37;;;;;;;111.30;46.50;;;0.30;99.90;;;;;;5096596;28;20020;-80
2022/11/09 06:27:03;;;;;;;115.97;47.10;;;0.40;99.90;;;;;;5096619;28;20016;-79
2022/11/09 06:29:29;;;;;;;139.98;57.40;;;0.40;99.90;;;;;;5076504;28;20497;-79
2022/11/09 06:31:54;;;;;;;123.13;52.60;;;0.50;99.90;;;;;;5076092;28;20060;-79
2022/11/09 06:34:20;;;;;;;143.85;60.60;;;0.50;99.90;;;;;;5074603;28;20017;-79
2022/11/09 06:36:45;;;;;;;136.15;58.13;;;0.50;99.90;;;;;;5074814;28;20106;-80
2022/11/09 06:39:11;;;;;;;112.72;48.72;;;0.60;99.90;;;;;;5074976;28;20033;-80
2022/11/09 06:41:37;;;;;;;129.40;53.25;;;0.60;99.90;;;;;;5074781;28;20048;-81
2022/11/09 06:44:04;;;;;;;117.28;48.38;;;0.70;99.90;;;;;;5075972;28;20070;-80
2022/11/09 06:46:30;;;;;;;109.95;48.33;;;0.80;99.90;;;;;;5076077;28;20041;-79
2022/11/09 06:48:56;;;;;;;123.90;52.08;;;0.80;99.90;;;;;;5074681;28;20042;-81
2022/11/09 06:51:22;;;;;;;121.03;51.53;;;0.90;99.90;;;;;;5075898;28;20490;-80
2022/11/09 06:53:48;;;;;;;120.85;51.30;;;1.00;99.90;;;;;;5074540;28;20028;-80
2022/11/09 06:56:13;;;;;;;120.93;51.55;;;1.10;99.90;;;;;;5074392;28;20032;-80
2022/11/09 06:58:39;;;;;;;120.30;52.00;;;1.20;99.90;;;;;;5074522;28;20115;-81
2022/11/09 07:01:10;;;;;;;122.10;56.83;;;1.30;99.90;;;;;;5074384;28;20028;-80
2022/11/09 07:03:36;;;;;;;144.40;63.72;;;1.50;99.90;;;;;;5073758;28;20020;-79
2022/11/09 07:06:07;;;;;;;130.02;56.05;;;1.60;99.90;;;;;;5073883;28;20055;-80
2022/11/09 07:08:34;;;;;;;149.85;68.72;;;1.70;99.90;;;;;;5074102;28;20013;-83
2022/11/09 07:11:04;;;;;;;132.70;58.30;;;1.80;99.90;;;;;;5091066;28;20024;-80
2022/11/09 07:13:30;;;;;;;145.95;64.15;;;2.00;99.90;;;;;;5091152;28;20020;-80
2022/11/09 07:15:56;;;;;;;126.57;58.42;;;2.10;99.90;;;;;;5075364;28;20044;-81
2022/11/09 07:18:21;;;;;;;135.05;59.03;;;2.30;99.90;;;;;;5074044;28;20020;-80
2022/11/09 07:20:47;;;;;;;136.93;62.63;;;2.40;99.90;;;;;;5076491;28;20027;-80
2022/11/09 07:23:12;;;;;;;137.55;65.65;;;2.50;99.90;;;;;;5095517;28;20027;-80
2022/11/09 07:25:38;;;;;;;154.63;68.07;;;2.70;99.90;;;;;;5075348;28;20031;-80
2022/11/09 07:28:07;;;;;;;161.45;71.35;;;2.80;99.90;;;;;;5075186;28;20105;-80
2022/11/09 07:30:33;;;;;;;167.10;75.95;;;2.90;99.90;;;;;;5065892;28;20478;-80
2022/11/09 07:32:59;;;;;;;188.75;84.25;;;3.00;99.90;;;;;;5073834;28;20035;-80
2022/11/09 07:35:25;;;;;;;184.30;83.63;;;3.20;99.90;;;;;;5090559;28;20448;-80
2022/11/09 07:37:51;;;;;;;181.73;82.05;;;3.30;99.90;;;;;;5074356;28;20017;-81
2022/11/09 07:40:17;;;;;;;213.70;94.85;;;3.50;99.90;;;;;;5074840;28;20073;-80
2022/11/09 07:42:43;;;;;;;206.05;97.82;;;3.60;99.90;;;;;;5074628;28;20083;-81
2022/11/09 07:45:08;;;;;;;203.13;96.05;;;3.70;99.90;;;;;;5074717;28;20028;-81
2022/11/09 07:47:34;;;;;;;191.85;89.43;;;3.80;99.90;;;;;;5073338;28;20021;-81
2022/11/09 07:50:00;;;;;;;198.50;81.55;;;3.90;99.90;;;;;;5074687;28;20096;-81
2022/11/09 07:52:25;;;;;;;180.98;83.88;;;4.00;99.90;;;;;;5090439;28;20027;-81
2022/11/09 07:54:51;;;;;;;192.75;88.40;;;4.10;99.90;;;;;;5073377;28;20170;-81
2022/11/09 07:57:16;;;;;;;187.90;85.85;;;4.20;99.90;;;;;;5074769;28;20028;-81
2022/11/09 07:59:42;;;;;;;181.35;81.82;;;4.30;99.90;;;;;;5074235;28;20466;-83
2022/11/09 08:02:08;;;;;;;180.15;77.63;;;4.40;99.90;;;;;;5074988;28;20020;-80
2022/11/09 08:04:34;;;;;;;149.52;68.80;;;4.60;99.90;;;;;;5094785;28;20047;-81
2022/11/09 08:06:59;;;;;;;133.65;65.07;;;4.70;99.90;;;;;;5093514;28;20378;-80
2022/11/09 08:09:26;;;;;;;122.28;56.58;;;4.80;99.90;;;;;;5081635;28;20494;-80
2022/11/09 08:11:52;;;;;;;120.97;55.30;;;5.00;99.90;;;;;;5072649;28;20020;-81
2022/11/09 08:14:17;;;;;;;87.72;41.97;;;5.10;99.90;;;;;;5074164;28;20074;-81
2022/11/09 08:16:43;;;;;;;75.75;36.08;;;5.40;99.90;;;;;;5074322;28;20120;-81
2022/11/09 08:19:09;;;;;;;84.63;36.75;;;5.60;99.90;;;;;;5072729;28;20109;-81
2022/11/09 08:21:36;;;;;;;78.50;36.47;;;5.90;99.90;;;;;;5084185;28;20527;-79
2022/11/09 08:24:02;;;;;;;81.05;36.92;;;6.00;99.90;;;;;;5093904;28;20031;-79
2022/11/09 08:26:27;;;;;;;78.38;36.88;;;6.30;99.90;;;;;;5093190;28;20024;-80
2022/11/09 08:28:54;;;;;;;79.15;36.00;;;6.50;99.90;;;;;;5093810;28;20028;-81
2022/11/09 08:31:20;;;;;;;80.28;37.28;;;6.70;99.90;;;;;;5094360;28;20016;-81
2022/11/09 08:33:46;;;;;;;73.68;36.90;;;6.80;99.90;;;;;;5093927;28;20035;-81
2022/11/09 08:36:15;;;;;;;69.72;33.28;;;6.90;99.90;;;;;;5094098;28;20040;-80
2022/11/09 08:38:42;;;;;;;77.85;35.67;;;7.00;99.90;;;;;;5093599;28;20036;-81
2022/11/09 08:41:08;;;;;;;73.72;34.25;;;7.20;99.90;;;;;;5109665;28;20094;-82
2022/11/09 08:43:34;;;;;;;70.47;34.53;;;7.40;99.90;;;;;;5093883;28;20020;-81
2022/11/09 08:46:00;;;;;;;63.47;31.45;;;7.60;99.90;;;;;;5092922;28;20489;-81
2022/11/09 08:48:25;;;;;;;66.00;31.10;;;7.70;99.90;;;;;;5079592;28;20102;-80
2022/11/09 08:50:56;;;;;;;61.72;32.97;;;7.90;99.90;;;;;;5073642;28;20097;-81
2022/11/09 08:53:23;;;;;;;59.45;29.02;;;8.00;99.90;;;;;;5089354;28;20017;-81
2022/11/09 08:55:49;;;;;;;56.92;31.13;;;8.20;99.90;;;;;;5073332;28;20043;-81
2022/11/09 08:58:15;;;;;;;56.97;28.48;;;8.30;99.90;;;;;;5073522;28;20025;-81
2022/11/09 09:00:41;;;;;;;62.08;29.83;;;8.50;99.90;;;;;;5072625;28;20029;-80
2022/11/09 09:03:06;;;;;;;54.35;27.30;;;8.60;99.90;;;;;;5087775;28;20103;-81
2022/11/09 09:05:34;;;;;;;54.55;26.58;;;8.70;99.90;;;;;;5070231;28;20115;-80
2022/11/09 09:08:00;;;;;;;52.95;27.65;;;8.80;99.90;;;;;;5071423;28;20029;-81
2022/11/09 09:10:26;;;;;;;58.55;29.15;;;9.00;99.90;;;;;;5072364;28;20039;-81
2022/11/09 09:12:52;;;;;;;53.70;26.10;;;9.10;99.90;;;;;;5088495;28;20024;-81
2022/11/09 09:15:18;;;;;;;55.67;27.25;;;9.00;99.90;;;;;;5072706;28;20397;-81
2022/11/09 09:17:43;;;;;;;56.85;26.88;;;9.10;99.90;;;;;;5071396;28;20489;-81
2022/11/09 09:20:09;;;;;;;49.28;24.95;;;9.10;99.90;;;;;;5086389;28;20035;-81
2022/11/09 09:22:35;;;;;;;45.92;23.83;;;9.10;99.90;;;;;;5086861;28;20024;-81
2022/11/09 09:25:01;;;;;;;49.95;24.33;;;9.00;99.90;;;;;;5086665;28;20493;-81
2022/11/09 09:27:28;;;;;;;48.13;25.67;;;9.10;99.90;;;;;;5071463;28;20042;-81
2022/11/09 09:29:54;;;;;;;43.83;23.08;;;9.00;99.90;;;;;;5069962;28;20032;-80
2022/11/09 09:32:19;;;;;;;50.55;25.30;;;9.10;99.90;;;;;;5071209;28;20030;-81
2022/11/09 09:34:45;;;;;;;47.38;25.17;;;9.20;99.90;;;;;;5072698;28;20074;-81
2022/11/09 09:37:11;;;;;;;47.22;24.88;;;9.20;99.90;;;;;;5072167;28;20025;-81
2022/11/09 09:39:36;;;;;;;43.35;25.08;;;9.20;99.90;;;;;;5073060;28;20035;-81
2022/11/09 09:42:07;;;;;;;47.80;24.38;;;9.20;99.90;;;;;;5073143;28;20056;-81
2022/11/09 09:44:42;;;;;;;46.33;24.45;;;9.30;99.90;;;;;;5071817;28;20490;-82
2022/11/09 09:47:26;;;;;;;44.75;22.70;;;9.40;99.90;;;;;;5073302;28;20359;-81
2022/11/09 09:50:03;;;;;;;42.22;22.63;;;9.40;99.90;;;;;;5073053;28;20036;-81
2022/11/09 09:52:35;;;;;;;45.25;24.58;;;9.40;99.90;;;;;;5073342;28;20055;-81
2022/11/09 09:55:22;;;;;;;38.63;22.27;;;9.40;99.90;;;;;;5071633;28;20044;-81
2022/11/09 09:57:53;;;;;;;39.67;21.75;;;9.50;99.90;;;;;;5075688;28;20429;-81
2022/11/09 10:00:23;;;;;;;39.40;23.50;;;9.50;99.90;;;;;;5077284;28;20108;-81
2022/11/09 10:02:49;;;;;;;48.72;24.15;;;9.60;99.90;;;;;;5075967;28;20070;-81
2022/11/09 10:05:16;;;;;;;43.55;24.00;;;9.60;99.90;;;;;;5076934;28;20025;-82
2022/11/09 10:08:39;;;;;;;44.75;24.85;;;9.70;99.90;;;;;;5076940;28;20031;-81
2022/11/09 10:11:49;;;;;;;47.08;25.85;;;9.70;99.90;;;;;;4998608;28;20037;-81
2022/11/09 10:14:52;;;;;;;45.53;24.08;;;9.80;99.90;;;;;;5008511;28;20120;-81
2022/11/09 10:17:36;;;;;;;46.25;24.63;;;9.80;99.90;;;;;;5056753;28;20039;-81
2022/11/09 10:20:26;;;;;;;46.53;23.92;;;9.80;99.90;;;;;;5056613;28;20368;-81
2022/11/09 10:22:59;;;;;;;42.25;21.55;;;9.80;99.90;;;;;;5056844;28;20032;-81
2022/11/09 10:25:26;;;;;;;43.67;22.63;;;9.80;99.90;;;;;;5056422;28;20032;-81
2022/11/09 10:28:05;;;;;;;38.10;22.02;;;9.90;99.90;;;;;;5072128;28;20112;-81
2022/11/09 10:30:32;;;;;;;42.58;23.08;;;9.90;99.90;;;;;;5056116;28;20032;-81
2022/11/09 10:33:09;;;;;;;43.15;23.85;;;10.00;99.90;;;;;;5068996;28;20062;-81
2022/11/09 10:36:07;;;;;;;41.00;22.83;;;10.10;99.90;;;;;;5066804;28;20486;-80
2022/11/09 10:38:39;;;;;;;36.90;20.90;;;10.20;99.90;;;;;;5068031;28;20086;-80
2022/11/09 10:41:26;;;;;;;33.47;19.35;;;10.30;99.90;;;;;;5073370;28;20070;-80
2022/11/09 10:43:52;;;;;;;33.60;19.05;;;10.40;99.90;;;;;;5074884;28;20032;-82
2022/11/09 10:46:20;;;;;;;33.83;19.00;;;10.50;99.90;;;;;;5071137;28;20025;-82
2022/11/09 10:48:45;;;;;;;30.30;17.35;;;10.50;99.90;;;;;;5070960;28;20024;-81
2022/11/09 10:51:37;;;;;;;33.67;17.60;;;10.60;99.90;;;;;;5073785;28;20071;-81
2022/11/09 10:54:20;;;;;;;28.20;17.90;;;10.70;99.90;;;;;;5076228;28;20016;-80
2022/11/09 10:56:57;;;;;;;33.75;18.45;;;10.80;99.90;;;;;;5088591;28;20064;-79
2022/11/09 10:59:34;;;;;;;30.63;18.33;;;10.90;99.90;;;;;;5075547;28;20044;-82
2022/11/09 11:02:00;;;;;;;29.63;16.85;;;11.00;99.90;;;;;;5073671;28;20053;-82
2022/11/09 11:04:26;;;;;;;29.63;17.95;;;11.10;99.90;;;;;;5074460;28;20075;-82
2022/11/09 11:06:52;;;;;;;28.60;17.38;;;11.10;99.90;;;;;;5074285;28;20445;-82
2022/11/09 11:09:22;;;;;;;28.60;16.65;;;11.20;99.90;;;;;;5074030;28;20017;-82
2022/11/09 11:11:47;;;;;;;27.35;15.65;;;11.30;99.90;;;;;;5070136;28;20021;-82
2022/11/09 11:14:16;;;;;;;28.60;16.25;;;11.30;99.90;;;;;;5077848;28;20096;-81
2022/11/09 11:16:43;;;;;;;29.65;16.27;;;11.30;99.90;;;;;;5074006;28;20119;-81
2022/11/09 11:19:47;;;;;;;29.83;16.42;;;11.30;99.90;;;;;;5067793;28;20104;-81
2022/11/09 11:22:20;;;;;;;25.30;14.18;;;11.40;99.90;;;;;;4995094;28;20030;-81
2022/11/09 11:24:55;;;;;;;28.10;15.80;;;11.40;99.90;;;;;;5011335;28;20117;-82
2022/11/09 11:27:29;;;;;;;26.35;14.77;;;11.50;99.90;;;;;;5057654;28;20033;-81
2022/11/09 11:30:09;;;;;;;25.20;14.52;;;11.60;99.90;;;;;;5076277;28;20087;-82
2022/11/09 11:32:35;;;;;;;24.10;14.25;;;11.70;99.90;;;;;;5066570;28;20017;-82
2022/11/09 11:35:13;;;;;;;25.08;15.25;;;11.70;99.90;;;;;;5081032;28;20050;-81
2022/11/09 11:37:47;;;;;;;28.33;15.85;;;11.70;99.90;;;;;;5075181;28;20065;-80
2022/11/09 11:40:40;;;;;;;29.83;16.95;;;11.70;99.90;;;;;;5079622;28;20036;-81
2022/11/09 11:43:24;;;;;;;29.63;15.70;;;11.80;99.90;;;;;;5094344;28;20070;-82
2022/11/09 11:46:00;;;;;;;28.65;16.55;;;11.90;99.90;;;;;;5086786;28;20043;-82
2022/11/09 11:48:46;;;;;;;28.35;15.07;;;11.90;99.90;;;;;;5073668;28;20036;-81
2022/11/09 11:51:32;;;;;;;26.92;15.73;;;12.00;99.90;;;;;;5071935;28;20051;-82
2022/11/09 11:54:05;;;;;;;24.35;14.27;;;12.00;99.90;;;;;;5075220;28;20021;-82
2022/11/09 11:56:40;;;;;;;24.40;14.07;;;12.00;99.90;;;;;;5072082;28;20047;-82
2022/11/09 11:59:25;;;;;;;28.23;15.40;;;12.10;99.90;;;;;;5075782;28;20032;-82
2022/11/09 12:02:24;;;;;;;23.70;14.65;;;12.10;99.90;;;;;;5112693;27;20035;-83
2022/11/09 12:04:57;;;;;;;24.08;14.27;;;12.10;99.90;;;;;;5071678;28;20016;-81
2022/11/09 12:07:25;;;;;;;26.95;14.57;;;12.20;99.90;;;;;;5105745;27;20479;-82
2022/11/09 12:10:06;;;;;;;29.42;15.32;;;12.20;99.90;;;;;;5071736;28;20047;-82
2022/11/09 12:12:58;;;;;;;25.65;13.70;;;12.30;99.90;;;;;;5080156;28;20046;-83
2022/11/09 12:15:36;;;;;;;25.40;13.48;;;12.30;99.90;;;;;;5091674;28;20046;-83
2022/11/09 12:18:36;;;;;;;30.85;16.85;;;12.30;99.90;;;;;;5093331;28;20081;-83
2022/11/09 12:21:14;;;;;;;29.30;16.92;;;12.40;99.90;;;;;;5081225;28;20032;-83
2022/11/09 12:23:46;;;;;;;31.83;19.70;;;12.40;99.90;;;;;;5090149;28;20077;-82
2022/11/09 12:26:26;;;;;;;28.98;16.40;;;12.50;99.90;;;;;;5093241;28;20478;-82
2022/11/09 12:29:16;;;;;;;28.20;14.98;;;12.50;99.90;;;;;;5090920;28;20095;-82
2022/11/09 12:32:04;;;;;;;21.92;13.40;;;12.60;99.90;;;;;;5108268;28;20047;-82
2022/11/09 12:34:45;;;;;;;27.23;15.13;;;12.60;99.90;;;;;;5092379;28;20035;-82
2022/11/09 12:37:19;;;;;;;27.90;15.88;;;12.60;99.90;;;;;;5093006;28;20059;-83
2022/11/09 12:39:46;;;;;;;24.85;14.70;;;12.70;99.90;;;;;;5090325;28;20060;-82
2022/11/09 12:42:25;;;;;;;21.60;13.75;;;12.70;99.90;;;;;;5097952;28;20079;-84
2022/11/09 12:45:03;;;;;;;30.83;17.40;;;12.60;99.90;;;;;;5092989;28;20020;-83
2022/11/09 12:47:43;;;;;;;37.55;20.40;;;12.60;99.90;;;;;;5066769;28;20037;-80